Haukur — OZ2119 — position and weather

sailwx.info

Track history (hours):
 
Tides and Currents Weather Stations Pressure Air Temp Water Temp Dewpoint Dewpoint Depression Visibility Wind Speed Wind Dir Waves Ship Positions

Haukur

Last reported at 2016-Aug-29 16:04 UTC. Time now 2016-Aug-30 20:50 UTC.
Position N 63°17' W 004°44'.

Length 75 m; draft 5 m.

Type: Cargo ship. MMSI: 231812000.

Date/timePositionNaut miles runAvg speedWind from/ knotsBaromVisibWave heightAir tempDewpointWater temp
2016-Aug-29 16:04N 63°17' W 004°44'15 9.7
2016-Aug-29 14:33N 63°17' W 005°17'9 9.4
2016-Aug-29 13:33N 63°18' W 005°38'10 9.5
2016-Aug-29 12:33N 63°18' W 005°59'10 9.6
2016-Aug-29 11:33N 63°19' W 006°20'10 9.6
2016-Aug-29 10:33N 63°19' W 006°41'1010.0
2016-Aug-29 09:33N 63°18' W 007°04'10 9.8
2016-Aug-29 08:33N 63°18' W 007°25'10 9.8
2016-Aug-29 07:33N 63°19' W 007°47'1010.2
2016-Aug-29 06:33N 63°18' W 008°10'  
2016-Aug-22 17:33N 62°38' W 009°21'9 8.9
2016-Aug-22 16:34N 62°37' W 009°02'9 9.3
2016-Aug-22 15:34N 62°35' W 008°42'9 9.2
2016-Aug-22 14:34N 62°34' W 008°23'8 8.1
2016-Aug-22 13:34N 62°33' W 008°05'7 7.5
2016-Aug-22 12:33N 62°32' W 007°49'8 7.7
2016-Aug-22 11:34N 62°31' W 007°33'8 8.3
2016-Aug-22 10:33N 62°30' W 007°15'9 9.0
2016-Aug-22 09:33N 62°28' W 006°56'1010.2
2016-Aug-22 08:34N 62°26' W 006°34'1110.6
2016-Aug-22 07:34N 62°24' W 006°12'10 9.8
2016-Aug-22 06:34N 62°19' W 005°54'9 9.2
2016-Aug-22 05:34N 62°14' W 005°37'9 8.9
2016-Aug-22 04:34N 62°09' W 005°21'8 8.4
2016-Aug-22 03:33N 62°05' W 005°05'9 8.6
2016-Aug-22 02:34N 62°01' W 004°49'9 8.8
2016-Aug-22 01:33N 61°57' W 004°33'331 8.9
2016-Aug-20 12:14N 58°43' E 004°30'6 8.9
2016-Aug-20 11:33N 58°40' E 004°40'9 8.9
2016-Aug-20 10:34N 58°34' E 004°52'9 9.3
2016-Aug-20 09:34N 58°28' E 005°07'1010.0
2016-Aug-20 08:34N 58°23' E 005°23'10 9.8
2016-Aug-20 07:34N 58°18' E 005°39'10 9.6
2016-Aug-20 06:34N 58°14' E 005°55'10 9.9
2016-Aug-20 05:33N 58°09' E 006°12'1010.1
2016-Aug-20 04:34N 58°04' E 006°28'9 9.3
2016-Aug-20 03:33N 57°59' E 006°43'9 9.5
2016-Aug-20 02:33N 57°54' E 006°58'1410.3
2016-Aug-20 01:12N 57°53' E 007°24'  
Track history (hours):
 
Tides and Currents Weather Stations Pressure Air Temp Water Temp Dewpoint Dewpoint Depression Visibility Wind Speed Wind Dir Waves Ship Positions

Haukur

Last reported at 2016-Aug-29 16:04 UTC. Time now 2016-Aug-30 20:50 UTC.
Position N 63°17' W 004°44'.

Length 75 m; draft 5 m.

Type: Cargo ship. MMSI: 231812000.

Date/timePositionNaut miles runAvg speedWind from/ knotsBaromVisibWave heightAir tempDewpointWater temp
2016-Aug-29 16:04N 63°17' W 004°44'15 9.7
2016-Aug-29 14:33N 63°17' W 005°17'9 9.4
2016-Aug-29 13:33N 63°18' W 005°38'10 9.5
2016-Aug-29 12:33N 63°18' W 005°59'10 9.6
2016-Aug-29 11:33N 63°19' W 006°20'10 9.6
2016-Aug-29 10:33N 63°19' W 006°41'1010.0
2016-Aug-29 09:33N 63°18' W 007°04'10 9.8
2016-Aug-29 08:33N 63°18' W 007°25'10 9.8
2016-Aug-29 07:33N 63°19' W 007°47'1010.2
2016-Aug-29 06:33N 63°18' W 008°10'  
2016-Aug-22 17:33N 62°38' W 009°21'9 8.9
2016-Aug-22 16:34N 62°37' W 009°02'9 9.3
2016-Aug-22 15:34N 62°35' W 008°42'9 9.2
2016-Aug-22 14:34N 62°34' W 008°23'8 8.1
2016-Aug-22 13:34N 62°33' W 008°05'7 7.5
2016-Aug-22 12:33N 62°32' W 007°49'8 7.7
2016-Aug-22 11:34N 62°31' W 007°33'8 8.3
2016-Aug-22 10:33N 62°30' W 007°15'9 9.0
2016-Aug-22 09:33N 62°28' W 006°56'1010.2
2016-Aug-22 08:34N 62°26' W 006°34'1110.6
2016-Aug-22 07:34N 62°24' W 006°12'10 9.8
2016-Aug-22 06:34N 62°19' W 005°54'9 9.2
2016-Aug-22 05:34N 62°14' W 005°37'9 8.9
2016-Aug-22 04:34N 62°09' W 005°21'8 8.4
2016-Aug-22 03:33N 62°05' W 005°05'9 8.6
2016-Aug-22 02:34N 62°01' W 004°49'9 8.8
2016-Aug-22 01:33N 61°57' W 004°33'331 8.9
2016-Aug-20 12:14N 58°43' E 004°30'6 8.9
2016-Aug-20 11:33N 58°40' E 004°40'9 8.9
2016-Aug-20 10:34N 58°34' E 004°52'9 9.3
2016-Aug-20 09:34N 58°28' E 005°07'1010.0
2016-Aug-20 08:34N 58°23' E 005°23'10 9.8
2016-Aug-20 07:34N 58°18' E 005°39'10 9.6
2016-Aug-20 06:34N 58°14' E 005°55'10 9.9
2016-Aug-20 05:33N 58°09' E 006°12'1010.1
2016-Aug-20 04:34N 58°04' E 006°28'9 9.3
2016-Aug-20 03:33N 57°59' E 006°43'9 9.5
2016-Aug-20 02:33N 57°54' E 006°58'1410.3
2016-Aug-20 01:12N 57°53' E 007°24'  

Dump ship's entire track history